Terminal Aerodrome Forecast
Issued by NWS

Home | Current Version | Previous Version | Text Only | Print | Product List | Glossary On
Versions: 1 2 3 4 5 6 7 8 9 10 11 12 13 14 15 16
818
FTUS43 KEAX 191720
TAFMKC
TAF
KMKC 191720Z 1918/2018 17009KT P6SM BKN200
     FM200900 17010KT 6SM -SHRA BR VCTS OVC015CB
     FM201300 17009KT P6SM VCSH BKN010
     FM201600 18011KT P6SM BKN015=

USA.gov is the U.S. government's official web portal to all federal, state and local government web resources and services.